UAL7481 KDCA-KJFK
Flight info
| Callsign | UAL7481 |
|---|---|
| Flight time | 0h 45m |
| Altitude | 25000 |
| Route | DOCTR5 AGARD T287 DONIL T315 PANZE V44 CAMRN |
| Aircraft | B38M/M-SDE1FGHILORVWXY/HB1 |
Departure
| Time | 2026-05-06 02:34 |
|---|---|
| Airport | Ronald Reagan Washington National Airport (KDCA) |
Arrival
| Time | 2026-05-06 03:19 |
|---|---|
| Airport | John F. Kennedy International Airport (KJFK) |
| Time | Latitude | Longitude | Altitude | Speed | Heading |
|---|---|---|---|---|---|
| 2026-05-06 01:55 | 38.85369 | -77.04108 | 26 ft | 0 kts | 325° |
| 2026-05-06 02:23 | 38.85356 | -77.04098 | 26 ft | 4 kts | 338° |
| 2026-05-06 02:23 | 38.85333 | -77.04096 | 26 ft | 4 kts | 26° |
| 2026-05-06 02:23 | 38.85315 | -77.04118 | 26 ft | 4 kts | 64° |
| 2026-05-06 02:23 | 38.85310 | -77.04133 | 26 ft | 1 kts | 72° |
| 2026-05-06 02:28 | 38.85312 | -77.04125 | 26 ft | 2 kts | 72° |
| 2026-05-06 02:28 | 38.85319 | -77.04095 | 26 ft | 5 kts | 72° |
| 2026-05-06 02:29 | 38.85332 | -77.04046 | 26 ft | 7 kts | 72° |
| 2026-05-06 02:29 | 38.85343 | -77.03975 | 26 ft | 9 kts | 82° |
| 2026-05-06 02:29 | 38.85356 | -77.03944 | 26 ft | 2 kts | 20° |
| 2026-05-06 02:29 | 38.85386 | -77.03940 | 26 ft | 10 kts | 2° |
| 2026-05-06 02:30 | 38.85482 | -77.03950 | 27 ft | 16 kts | 355° |
| 2026-05-06 02:30 | 38.85601 | -77.03961 | 27 ft | 18 kts | 355° |
| 2026-05-06 02:30 | 38.85728 | -77.03974 | 28 ft | 19 kts | 354° |
| 2026-05-06 02:30 | 38.85861 | -77.03987 | 27 ft | 11 kts | 356° |
| 2026-05-06 02:31 | 38.85945 | -77.03979 | 27 ft | 13 kts | 13° |
| 2026-05-06 02:31 | 38.85984 | -77.03964 | 27 ft | 0 kts | 17° |
| 2026-05-06 02:32 | 38.85996 | -77.03960 | 27 ft | 4 kts | 17° |
| 2026-05-06 02:32 | 38.86052 | -77.03937 | 26 ft | 11 kts | 19° |
| 2026-05-06 02:32 | 38.86083 | -77.03864 | 26 ft | 5 kts | 122° |
| 2026-05-06 02:32 | 38.86072 | -77.03858 | 29 ft | 3 kts | 186° |
| 2026-05-06 02:33 | 38.86024 | -77.03863 | 27 ft | 0 kts | 176° |
| 2026-05-06 02:33 | 38.85110 | -77.03772 | 27 ft | 147 kts | 176° |
| 2026-05-06 02:34 | 38.83916 | -77.03669 | 435 ft | 186 kts | 178° |
| 2026-05-06 02:34 | 38.82525 | -77.03529 | 1223 ft | 216 kts | 174° |
| 2026-05-06 02:34 | 38.81074 | -77.03056 | 2471 ft | 220 kts | 170° |
| 2026-05-06 02:34 | 38.79590 | -77.02436 | 3467 ft | 228 kts | 169° |
| 2026-05-06 02:35 | 38.78081 | -77.01893 | 4588 ft | 220 kts | 180° |
| 2026-05-06 02:35 | 38.76553 | -77.01530 | 5611 ft | 235 kts | 163° |
| 2026-05-06 02:35 | 38.75266 | -77.00079 | 6463 ft | 270 kts | 128° |
| 2026-05-06 02:35 | 38.74764 | -76.97635 | 7160 ft | 304 kts | 92° |
| 2026-05-06 02:36 | 38.74980 | -76.94905 | 8156 ft | 308 kts | 88° |
| 2026-05-06 02:36 | 38.75519 | -76.92228 | 9115 ft | 315 kts | 60° |
| 2026-05-06 02:36 | 38.76990 | -76.90194 | 10176 ft | 312 kts | 31° |
| 2026-05-06 02:36 | 38.78883 | -76.88772 | 10800 ft | 328 kts | 27° |
| 2026-05-06 02:37 | 38.80906 | -76.87234 | 11267 ft | 348 kts | 28° |
| 2026-05-06 02:37 | 38.83032 | -76.85596 | 11734 ft | 366 kts | 29° |
| 2026-05-06 02:37 | 38.85207 | -76.83777 | 12334 ft | 379 kts | 39° |
| 2026-05-06 02:37 | 38.86903 | -76.81193 | 13264 ft | 382 kts | 59° |
| 2026-05-06 02:38 | 38.88140 | -76.78142 | 13981 ft | 389 kts | 64° |
| 2026-05-06 02:38 | 38.89351 | -76.75010 | 14674 ft | 393 kts | 64° |
| 2026-05-06 02:38 | 38.90562 | -76.71832 | 15374 ft | 398 kts | 65° |
| 2026-05-06 02:38 | 38.91778 | -76.68607 | 16036 ft | 404 kts | 65° |
| 2026-05-06 02:39 | 38.93010 | -76.65325 | 16706 ft | 409 kts | 65° |
| 2026-05-06 02:39 | 38.94225 | -76.62033 | 16964 ft | 414 kts | 68° |
| 2026-05-06 02:39 | 38.95360 | -76.58552 | 16977 ft | 430 kts | 68° |
| 2026-05-06 02:39 | 38.96543 | -76.54941 | 16978 ft | 446 kts | 68° |
| 2026-05-06 02:40 | 38.97767 | -76.51223 | 16983 ft | 454 kts | 68° |
| 2026-05-06 02:40 | 38.99007 | -76.47462 | 16979 ft | 457 kts | 68° |
| 2026-05-06 02:40 | 39.00247 | -76.43688 | 16999 ft | 457 kts | 69° |
| 2026-05-06 02:40 | 39.01067 | -76.39766 | 17029 ft | 454 kts | 84° |
| 2026-05-06 02:41 | 39.01509 | -76.35737 | 17009 ft | 455 kts | 84° |
| 2026-05-06 02:41 | 39.01935 | -76.31701 | 17032 ft | 455 kts | 85° |
| 2026-05-06 02:41 | 39.02338 | -76.27706 | 17034 ft | 455 kts | 85° |
| 2026-05-06 02:41 | 39.02738 | -76.23659 | 17037 ft | 455 kts | 85° |
| 2026-05-06 02:42 | 39.03134 | -76.19605 | 17030 ft | 455 kts | 85° |
| 2026-05-06 02:42 | 39.03528 | -76.15558 | 17037 ft | 455 kts | 85° |
| 2026-05-06 02:42 | 39.03919 | -76.11521 | 17024 ft | 453 kts | 85° |
| 2026-05-06 02:42 | 39.04281 | -76.07549 | 17028 ft | 451 kts | 88° |
| 2026-05-06 02:43 | 39.04454 | -76.03536 | 17045 ft | 450 kts | 89° |
| 2026-05-06 02:43 | 39.04632 | -75.99513 | 17034 ft | 450 kts | 89° |
| 2026-05-06 02:43 | 39.04820 | -75.95490 | 17026 ft | 450 kts | 89° |
| 2026-05-06 02:43 | 39.05011 | -75.91467 | 17027 ft | 450 kts | 89° |
| 2026-05-06 02:44 | 39.05201 | -75.87451 | 17024 ft | 450 kts | 89° |
| 2026-05-06 02:44 | 39.05381 | -75.83628 | 17031 ft | 450 kts | 89° |
| 2026-05-06 02:45 | 39.05409 | -75.83051 | 17022 ft | 450 kts | 89° |
| 2026-05-06 02:45 | 39.05596 | -75.79033 | 17032 ft | 450 kts | 89° |
| 2026-05-06 02:45 | 39.05783 | -75.75013 | 17030 ft | 448 kts | 89° |
| 2026-05-06 02:46 | 39.05967 | -75.71008 | 17027 ft | 448 kts | 89° |
| 2026-05-06 02:46 | 39.06145 | -75.67000 | 17025 ft | 448 kts | 89° |
| 2026-05-06 02:46 | 39.06315 | -75.62984 | 17028 ft | 448 kts | 89° |
| 2026-05-06 02:46 | 39.06483 | -75.59031 | 17011 ft | 448 kts | 89° |
| 2026-05-06 02:47 | 39.06651 | -75.55021 | 17025 ft | 448 kts | 89° |
| 2026-05-06 02:47 | 39.06818 | -75.51008 | 17027 ft | 448 kts | 89° |
| 2026-05-06 02:47 | 39.06984 | -75.46999 | 17025 ft | 448 kts | 89° |
| 2026-05-06 02:47 | 39.07149 | -75.42991 | 17026 ft | 448 kts | 90° |
| 2026-05-06 02:48 | 39.07310 | -75.39033 | 17024 ft | 450 kts | 89° |
| 2026-05-06 02:48 | 39.07478 | -75.34999 | 17027 ft | 451 kts | 88° |
| 2026-05-06 02:48 | 39.08091 | -75.31035 | 17011 ft | 454 kts | 71° |
| 2026-05-06 02:48 | 39.09491 | -75.27385 | 17051 ft | 456 kts | 58° |
| 2026-05-06 02:49 | 39.11203 | -75.23942 | 17026 ft | 456 kts | 57° |
| 2026-05-06 02:49 | 39.12952 | -75.20512 | 17048 ft | 457 kts | 57° |
| 2026-05-06 02:49 | 39.14691 | -75.17149 | 17051 ft | 457 kts | 56° |
| 2026-05-06 02:49 | 39.16468 | -75.13741 | 17067 ft | 457 kts | 56° |
| 2026-05-06 02:50 | 39.18245 | -75.10341 | 17059 ft | 457 kts | 56° |
| 2026-05-06 02:50 | 39.20022 | -75.06941 | 17068 ft | 457 kts | 56° |
| 2026-05-06 02:50 | 39.21802 | -75.03533 | 17057 ft | 457 kts | 56° |
| 2026-05-06 02:50 | 39.23578 | -75.00128 | 17061 ft | 458 kts | 56° |
| 2026-05-06 02:51 | 39.25335 | -74.96757 | 17079 ft | 458 kts | 56° |
| 2026-05-06 02:51 | 39.27109 | -74.93349 | 17082 ft | 458 kts | 56° |
| 2026-05-06 02:51 | 39.28891 | -74.89923 | 17076 ft | 458 kts | 56° |
| 2026-05-06 02:51 | 39.30665 | -74.86506 | 17055 ft | 459 kts | 56° |
| 2026-05-06 02:52 | 39.32450 | -74.83066 | 17066 ft | 459 kts | 56° |
| 2026-05-06 02:52 | 39.34224 | -74.79645 | 17048 ft | 459 kts | 56° |
| 2026-05-06 02:52 | 39.35974 | -74.76264 | 17061 ft | 459 kts | 56° |
| 2026-05-06 02:52 | 39.37751 | -74.72828 | 17072 ft | 459 kts | 56° |
| 2026-05-06 02:53 | 39.39523 | -74.69398 | 17064 ft | 459 kts | 56° |
| 2026-05-06 02:53 | 39.41298 | -74.65958 | 17074 ft | 459 kts | 56° |
| 2026-05-06 02:53 | 39.43070 | -74.62521 | 17073 ft | 458 kts | 56° |
| 2026-05-06 02:53 | 39.44844 | -74.59079 | 17086 ft | 458 kts | 56° |
| 2026-05-06 02:54 | 39.46669 | -74.55702 | 17075 ft | 458 kts | 54° |
| 2026-05-06 02:54 | 39.48481 | -74.52368 | 17075 ft | 458 kts | 54° |
| 2026-05-06 02:54 | 39.50310 | -74.48988 | 17072 ft | 458 kts | 54° |
| 2026-05-06 02:54 | 39.52138 | -74.45602 | 17064 ft | 458 kts | 54° |
| 2026-05-06 02:55 | 39.53965 | -74.42213 | 17067 ft | 458 kts | 54° |
| 2026-05-06 02:55 | 39.55794 | -74.38818 | 17058 ft | 458 kts | 54° |
| 2026-05-06 02:55 | 39.57614 | -74.35436 | 17067 ft | 454 kts | 54° |
| 2026-05-06 02:55 | 39.59381 | -74.32148 | 17081 ft | 436 kts | 54° |
| 2026-05-06 02:56 | 39.61104 | -74.28939 | 17083 ft | 433 kts | 54° |
| 2026-05-06 02:56 | 39.62824 | -74.25733 | 17059 ft | 431 kts | 54° |
| 2026-05-06 02:56 | 39.64502 | -74.22601 | 16616 ft | 427 kts | 54° |
| 2026-05-06 02:56 | 39.66204 | -74.19422 | 16091 ft | 425 kts | 54° |
| 2026-05-06 02:57 | 39.68043 | -74.16456 | 15664 ft | 419 kts | 41° |
| 2026-05-06 02:57 | 39.70227 | -74.13979 | 15186 ft | 415 kts | 39° |
| 2026-05-06 02:57 | 39.72422 | -74.11769 | 15539 ft | 384 kts | 33° |
| 2026-05-06 02:57 | 39.74424 | -74.09607 | 15915 ft | 367 kts | 41° |
| 2026-05-06 02:58 | 39.75682 | -74.08096 | 16106 ft | 375 kts | 40° |
| 2026-05-06 02:58 | 39.78364 | -74.05013 | 16567 ft | 393 kts | 39° |
| 2026-05-06 02:58 | 39.79746 | -74.03451 | 16788 ft | 401 kts | 39° |
| 2026-05-06 02:58 | 39.82617 | -74.00239 | 17008 ft | 419 kts | 38° |
| 2026-05-06 02:59 | 39.84172 | -73.98640 | 16663 ft | 420 kts | 30° |
| 2026-05-06 02:59 | 39.86665 | -73.96822 | 16311 ft | 412 kts | 26° |
| 2026-05-06 02:59 | 39.89170 | -73.95023 | 15855 ft | 409 kts | 26° |
| 2026-05-06 02:59 | 39.91665 | -73.93247 | 15383 ft | 406 kts | 26° |
| 2026-05-06 03:00 | 39.94955 | -73.90913 | 14718 ft | 405 kts | 26° |
| 2026-05-06 03:00 | 39.96594 | -73.89751 | 14386 ft | 404 kts | 26° |
| 2026-05-06 03:00 | 39.98999 | -73.88045 | 13927 ft | 402 kts | 26° |
| 2026-05-06 03:00 | 40.01455 | -73.86301 | 13391 ft | 402 kts | 26° |
| 2026-05-06 03:01 | 40.03890 | -73.84573 | 13271 ft | 398 kts | 26° |
| 2026-05-06 03:01 | 40.06340 | -73.82841 | 13266 ft | 401 kts | 26° |
| 2026-05-06 03:01 | 40.08407 | -73.81374 | 13269 ft | 402 kts | 26° |
| 2026-05-06 03:01 | 40.10870 | -73.79630 | 13265 ft | 402 kts | 27° |
| 2026-05-06 03:02 | 40.13333 | -73.77884 | 13265 ft | 402 kts | 26° |
| 2026-05-06 03:02 | 40.15789 | -73.76142 | 13266 ft | 402 kts | 26° |
| 2026-05-06 03:02 | 40.18218 | -73.74422 | 13263 ft | 402 kts | 26° |
| 2026-05-06 03:02 | 40.20680 | -73.72688 | 13260 ft | 401 kts | 26° |
| 2026-05-06 03:03 | 40.23143 | -73.70967 | 13252 ft | 401 kts | 26° |
| 2026-05-06 03:03 | 40.25600 | -73.69251 | 13252 ft | 401 kts | 26° |
| 2026-05-06 03:03 | 40.28066 | -73.67533 | 13245 ft | 401 kts | 26° |
| 2026-05-06 03:03 | 40.30534 | -73.65812 | 13245 ft | 401 kts | 26° |
| 2026-05-06 03:04 | 40.33001 | -73.64078 | 13243 ft | 402 kts | 26° |
| 2026-05-06 03:04 | 40.35428 | -73.62335 | 13240 ft | 402 kts | 26° |
| 2026-05-06 03:04 | 40.37881 | -73.60567 | 13236 ft | 402 kts | 26° |
| 2026-05-06 03:04 | 40.40319 | -73.58824 | 13014 ft | 394 kts | 26° |
| 2026-05-06 03:05 | 40.42674 | -73.57159 | 12726 ft | 375 kts | 26° |
| 2026-05-06 03:05 | 40.44913 | -73.55571 | 12455 ft | 357 kts | 26° |
| 2026-05-06 03:05 | 40.47057 | -73.54051 | 12178 ft | 342 kts | 26° |
| 2026-05-06 03:05 | 40.49117 | -73.52592 | 11909 ft | 331 kts | 26° |
| 2026-05-06 03:06 | 40.51136 | -73.51164 | 11629 ft | 328 kts | 26° |
| 2026-05-06 03:06 | 40.53117 | -73.49773 | 11369 ft | 324 kts | 26° |
| 2026-05-06 03:06 | 40.55108 | -73.48372 | 11102 ft | 325 kts | 26° |
| 2026-05-06 03:06 | 40.57196 | -73.47368 | 10772 ft | 315 kts | 1° |
| 2026-05-06 03:07 | 40.59366 | -73.47294 | 10501 ft | 312 kts | 360° |
| 2026-05-06 03:07 | 40.61529 | -73.47078 | 10260 ft | 311 kts | 1° |
| 2026-05-06 03:07 | 40.63681 | -73.46837 | 9849 ft | 309 kts | 2° |
| 2026-05-06 03:07 | 40.65848 | -73.46585 | 9242 ft | 317 kts | 1° |
| 2026-05-06 03:08 | 40.68054 | -73.46278 | 8594 ft | 320 kts | 8° |
| 2026-05-06 03:08 | 40.70136 | -73.45203 | 7959 ft | 323 kts | 24° |
| 2026-05-06 03:08 | 40.72148 | -73.43899 | 7368 ft | 320 kts | 22° |
| 2026-05-06 03:08 | 40.74227 | -73.42972 | 6734 ft | 311 kts | 0° |
| 2026-05-06 03:09 | 40.76304 | -73.43260 | 6114 ft | 294 kts | 332° |
| 2026-05-06 03:09 | 40.77975 | -73.44634 | 5541 ft | 276 kts | 307° |
| 2026-05-06 03:09 | 40.79092 | -73.46553 | 5116 ft | 262 kts | 297° |
| 2026-05-06 03:09 | 40.80088 | -73.48506 | 4813 ft | 250 kts | 296° |
| 2026-05-06 03:10 | 40.81014 | -73.50388 | 4610 ft | 236 kts | 295° |
| 2026-05-06 03:10 | 40.81818 | -73.52166 | 4466 ft | 214 kts | 283° |
| 2026-05-06 03:10 | 40.81971 | -73.53969 | 4364 ft | 187 kts | 257° |
| 2026-05-06 03:10 | 40.81753 | -73.55599 | 4295 ft | 175 kts | 255° |
| 2026-05-06 03:11 | 40.81530 | -73.57102 | 4178 ft | 162 kts | 254° |
| 2026-05-06 03:11 | 40.81305 | -73.58500 | 4056 ft | 149 kts | 253° |
| 2026-05-06 03:11 | 40.81082 | -73.59797 | 3983 ft | 140 kts | 252° |
| 2026-05-06 03:11 | 40.80862 | -73.61023 | 3933 ft | 135 kts | 252° |
| 2026-05-06 03:12 | 40.80649 | -73.62189 | 3833 ft | 125 kts | 251° |
| 2026-05-06 03:12 | 40.80461 | -73.63284 | 3734 ft | 120 kts | 250° |
| 2026-05-06 03:12 | 40.80271 | -73.64304 | 3710 ft | 111 kts | 249° |
| 2026-05-06 03:12 | 40.80074 | -73.65279 | 3653 ft | 108 kts | 246° |
| 2026-05-06 03:13 | 40.79578 | -73.65946 | 3455 ft | 104 kts | 218° |
| 2026-05-06 03:13 | 40.78964 | -73.66459 | 3333 ft | 105 kts | 217° |
| 2026-05-06 03:13 | 40.78334 | -73.66944 | 3193 ft | 104 kts | 215° |
| 2026-05-06 03:13 | 40.77700 | -73.67403 | 3035 ft | 103 kts | 215° |
| 2026-05-06 03:14 | 40.77082 | -73.67842 | 2869 ft | 102 kts | 214° |
| 2026-05-06 03:14 | 40.76458 | -73.68285 | 2746 ft | 102 kts | 214° |
| 2026-05-06 03:14 | 40.75837 | -73.68725 | 2620 ft | 100 kts | 213° |
| 2026-05-06 03:14 | 40.75224 | -73.69159 | 2505 ft | 99 kts | 213° |
| 2026-05-06 03:15 | 40.74627 | -73.69577 | 2436 ft | 98 kts | 215° |
| 2026-05-06 03:15 | 40.74034 | -73.69998 | 2363 ft | 97 kts | 215° |
| 2026-05-06 03:15 | 40.73444 | -73.70416 | 2304 ft | 96 kts | 214° |
| 2026-05-06 03:15 | 40.72862 | -73.70828 | 2250 ft | 94 kts | 214° |
| 2026-05-06 03:16 | 40.72279 | -73.71222 | 2142 ft | 95 kts | 211° |
| 2026-05-06 03:16 | 40.71662 | -73.71535 | 1832 ft | 94 kts | 208° |
| 2026-05-06 03:16 | 40.71049 | -73.71818 | 1482 ft | 93 kts | 206° |
| 2026-05-06 03:16 | 40.70442 | -73.72150 | 1168 ft | 96 kts | 210° |
| 2026-05-06 03:17 | 40.69855 | -73.72593 | 1053 ft | 100 kts | 213° |
| 2026-05-06 03:17 | 40.69249 | -73.73066 | 1002 ft | 102 kts | 213° |
| 2026-05-06 03:17 | 40.68634 | -73.73551 | 948 ft | 104 kts | 211° |
| 2026-05-06 03:17 | 40.67953 | -73.74060 | 871 ft | 121 kts | 210° |
| 2026-05-06 03:18 | 40.67230 | -73.74618 | 673 ft | 121 kts | 210° |
| 2026-05-06 03:18 | 40.66480 | -73.75211 | 543 ft | 128 kts | 207° |
| 2026-05-06 03:18 | 40.65722 | -73.75812 | 418 ft | 127 kts | 204° |
| 2026-05-06 03:18 | 40.64970 | -73.76396 | 240 ft | 126 kts | 207° |
| 2026-05-06 03:19 | 40.64222 | -73.76979 | 88 ft | 120 kts | 207° |
| 2026-05-06 03:19 | 40.63577 | -73.77487 | 27 ft | 94 kts | 207° |
| 2026-05-06 03:19 | 40.63184 | -73.77792 | 30 ft | 40 kts | 210° |
| 2026-05-06 03:19 | 40.63038 | -73.77920 | 28 ft | 21 kts | 234° |
| 2026-05-06 03:20 | 40.63063 | -73.78039 | 27 ft | 11 kts | 298° |
| 2026-05-06 03:20 | 40.63131 | -73.78192 | 25 ft | 26 kts | 301° |
| 2026-05-06 03:20 | 40.63202 | -73.78344 | 24 ft | 6 kts | 321° |
| 2026-05-06 03:21 | 40.63222 | -73.78347 | 26 ft | 3 kts | 17° |
| 2026-05-06 03:21 | 40.63263 | -73.78320 | 27 ft | 11 kts | 30° |
| 2026-05-06 03:21 | 40.63336 | -73.78262 | 26 ft | 13 kts | 31° |
| 2026-05-06 03:21 | 40.63414 | -73.78201 | 28 ft | 14 kts | 31° |
| 2026-05-06 03:22 | 40.63492 | -73.78232 | 28 ft | 15 kts | 304° |
| 2026-05-06 03:22 | 40.63515 | -73.78266 | 27 ft | 14 kts | 327° |
| 2026-05-06 03:22 | 40.63536 | -73.78271 | 27 ft | 10 kts | 9° |
| 2026-05-06 03:22 | 40.63595 | -73.78252 | 28 ft | 1 kts | 12° |
| 2026-05-06 03:23 | 40.63600 | -73.78249 | 25 ft | 1 kts | 28° |
| 2026-05-06 03:23 | 40.63606 | -73.78240 | 27 ft | 0 kts | 66° |
| 2026-05-06 03:23 | 40.63606 | -73.78238 | 27 ft | 0 kts | 85° |
| 2026-05-06 03:23 | 40.63600 | -73.78199 | 27 ft | 0 kts | 102° |
| 2026-05-06 03:24 | 40.63599 | -73.78184 | 25 ft | 3 kts | 94° |
| 2026-05-06 03:24 | 40.63600 | -73.78160 | 27 ft | 1 kts | 88° |
| 2026-05-06 03:24 | 40.63601 | -73.78141 | 25 ft | 0 kts | 85° |
| 2026-05-06 03:24 | 40.63601 | -73.78131 | 25 ft | 1 kts | 84° |
| 2026-05-06 03:25 | 40.63602 | -73.78125 | 25 ft | 0 kts | 84° |